Metar - Info de Aeroporto     EHAM Amsterdam Airport Schiphol
Temperatura
52°F Temperatura
50°F Ptº Orvalho
94% Humidade



Vento
5 MPH
8 KM/H
2 M/S
4 NÓS



190°
S
Condições Atuais

Pouco Nublado Pouco Nublado
Pressão 1008.92 (hPa) - 29.79 (inHg)
Visibilidade 3.7 (milha) - 6 (km)
Aeroporto
Código-Aeropoto EHAM

Localização: Amsterdam Airport Schiphol
Distância: 25 (mi)

Metar:
EHAM 281325Z 19004KT 150V230 6000 FEW004 SCT006 11/10 Q1009 TEMPO BKN006

Hora: 28-11-2022 14:25 CET